Latest Weather Observations for Camden

IDN60901

Issued at 5:25 am EST Saturday 23 August 2014 (issued every 10 minutes, with the page automatically refreshed every 10 minutes)

About weather observations | Map of Sydney area stations | Latest observations for Sydney area | Other Formats
Station Details ID: 068192 Name: CAMDEN AIRPORT AWS Lat: -34.04 Lon: 150.69 Height: 73.9 m
Data from the previous 72 hours. | See also: Recent months at Camden
Date/Time
EST
Tmp

°C
App
Tmp
°C
Dew
Point
°C
Rel
Hum
%
Delta-T

°C
Wind Press
QNH
hPa
Press
MSL
hPa
Rain
since
9 am
mm
Dir
 
Spd
km/h
Gust
km/h
Spd
kts
Gust
kts
23/05:00am 7.5 6.9 7.4 99 0.0 CALM 0 0 0 0 1029.8 1029.8 0.0
23/04:30am 7.8 7.3 7.7 99 0.0 CALM 0 0 0 0 1029.6 - 0.0
23/04:00am 7.4 6.8 7.3 99 0.0 CALM 0 4 0 2 1029.6 1029.6 0.0
23/03:50am 7.1 6.4 7.0 99 0.0 CALM 0 0 0 0 1029.6 - 0.0
23/03:30am 6.9 5.4 6.8 99 0.0 S 4 6 2 3 1029.7 - 0.0
23/03:26am 6.9 5.0 6.8 99 0.0 S 6 7 3 4 1029.7 - 0.0
23/03:08am 7.5 6.1 7.4 99 0.0 SE 4 9 2 5 1029.8 - 0.0
23/03:00am 7.1 6.4 7.0 99 0.0 CALM 0 0 0 0 1029.9 1029.9 0.0
23/02:56am 6.9 6.2 6.8 99 0.0 CALM 0 0 0 0 1029.9 - 0.0
23/02:40am 7.6 7.0 7.5 99 0.0 CALM 0 0 0 0 1029.9 - 0.0
23/02:30am 7.4 6.8 7.3 99 0.0 CALM 0 0 0 0 1029.9 - 0.0
23/02:14am 7.4 6.8 7.3 99 0.0 CALM 0 0 0 0 1030.0 - 0.0
23/02:00am 7.5 6.9 7.4 99 0.0 CALM 0 0 0 0 1030.2 1030.2 0.0
23/01:34am 7.2 6.1 6.9 98 0.1 SE 2 7 1 4 1030.5 - 0.0
23/01:30am 7.1 6.4 6.8 98 0.1 CALM 0 0 0 0 1030.5 - 0.0
23/01:20am 7.1 6.4 6.8 98 0.1 CALM 0 0 0 0 1030.6 - 0.0
23/01:11am 7.1 6.4 7.0 99 0.0 CALM 0 0 0 0 1030.6 - 0.0
23/01:00am 7.9 7.0 7.6 98 0.1 E 2 6 1 3 1030.6 1030.6 0.0
23/12:32am 8.0 7.1 7.9 99 0.0 SE 2 6 1 3 1030.7 - 0.0
23/12:30am 8.1 6.9 8.0 99 0.0 SE 4 6 2 3 1030.7 - 0.0
23/12:00am 7.7 7.0 7.1 96 0.3 CALM 0 0 0 0 1030.9 1030.9 0.0
 
Date/Time
EST
Tmp

°C
App
Tmp
°C
Dew
Point
°C
Rel
Hum
%
Delta-T

°C
Wind Press
QNH
hPa
Press
MSL
hPa
Rain
since
9 am
mm
Dir
 
Spd
km/h
Gust
km/h
Spd
kts
Gust
kts
22/11:52pm 7.8 7.2 7.2 96 0.3 CALM 0 0 0 0 1030.9 - 0.0
22/11:41pm 8.0 6.6 7.4 96 0.3 SE 4 7 2 4 1030.9 - 0.0
22/11:30pm 8.0 6.3 7.6 97 0.2 SSE 6 7 3 4 1030.9 - 0.0
22/11:00pm 8.3 7.4 7.7 96 0.3 WSW 2 7 1 4 1031.1 1031.1 0.0
22/10:30pm 8.8 8.4 8.4 97 0.2 CALM 0 0 0 0 1031.1 - 0.0
22/10:00pm 8.7 8.3 8.1 96 0.3 CALM 0 0 0 0 1031.2 1031.2 0.0
22/09:30pm 9.1 8.8 8.5 96 0.3 CALM 0 0 0 0 1031.2 - 0.0
22/09:00pm 9.2 8.8 8.4 95 0.4 CALM 0 0 0 0 1031.1 1031.1 0.0
22/08:30pm 10.0 9.7 8.6 91 0.7 CALM 0 0 0 0 1031.1 - 0.0
22/08:00pm 10.6 10.4 8.9 89 0.8 CALM 0 6 0 3 1031.0 1031.0 0.0
22/07:30pm 11.1 9.7 8.8 86 1.1 SSW 6 7 3 4 1030.9 - 0.0
22/07:00pm 11.7 10.3 8.7 82 1.5 SW 6 7 3 4 1030.6 1030.6 0.0
22/06:30pm 12.5 10.5 8.8 78 1.8 SSE 9 13 5 7 1030.1 - 0.0
22/06:00pm 13.1 11.1 8.6 74 2.2 SSE 9 13 5 7 1029.9 1029.9 0.0
22/05:30pm 14.2 11.8 8.8 70 2.7 SSE 11 17 6 9 1029.6 - 0.0
22/05:00pm 15.2 12.8 8.7 65 3.3 SSE 11 17 6 9 1029.1 1029.2 0.0
22/04:30pm 16.3 13.8 8.0 58 4.2 SE 11 17 6 9 1028.8 - 0.0
22/04:00pm 18.1 14.8 8.1 52 5.1 S 15 20 8 11 1028.5 1028.6 0.0
22/03:30pm 18.2 14.9 8.2 52 5.1 SSE 15 20 8 11 1028.4 - 0.0
22/03:00pm 17.7 14.8 8.3 54 4.8 SE 13 17 7 9 1028.7 1028.8 0.0
22/02:30pm 17.5 14.8 7.5 52 5.1 SSE 11 17 6 9 1028.8 - 0.0
22/02:00pm 19.0 16.9 8.4 50 5.5 SSE 9 19 5 10 1028.9 1029.0 0.0
22/01:30pm 18.2 15.6 7.6 50 5.4 S 11 17 6 9 1029.2 - 0.0
22/01:00pm 17.2 16.4 8.1 55 4.6 SSW 2 9 1 5 1029.6 1029.6 0.0
22/12:30pm 16.7 14.9 7.9 56 4.5 SSE 7 11 4 6 1030.2 - 0.0
22/12:00pm 17.8 16.2 8.6 55 4.7 S 7 11 4 6 1030.7 1030.7 0.0
22/11:30am 16.4 14.8 8.6 60 4.0 S 7 11 4 6 1031.4 - 0.0
22/11:00am 16.2 13.8 8.7 61 3.8 SE 11 15 6 8 1031.8 1031.9 0.0
22/10:30am 16.7 14.3 9.9 64 3.6 S 13 19 7 10 1032.1 - 0.0
22/10:00am 16.0 12.9 9.0 63 3.6 SSE 15 22 8 12 1032.3 1032.4 0.0
22/09:30am 14.9 12.1 8.4 65 3.3 S 13 22 7 12 1032.3 - 0.0
22/09:00am 14.9 12.3 9.3 69 2.9 S 13 19 7 10 1032.1 1032.2 0.4
22/08:30am 13.3 11.9 9.7 79 1.8 S 7 11 4 6 1032.1 - 0.4
22/08:00am 11.9 12.0 10.3 90 0.8 CALM 0 0 0 0 1031.8 1031.9 0.4
22/07:30am 10.5 10.5 9.7 95 0.4 CALM 0 0 0 0 1031.5 - 0.4
22/07:00am 10.2 10.1 9.4 95 0.4 CALM 0 0 0 0 1031.2 1031.2 0.4
22/06:30am 9.1 8.7 8.3 95 0.4 CALM 0 0 0 0 1030.8 - 0.4
22/06:00am 9.8 9.6 8.9 94 0.4 SW 0 0 0 0 1030.4 1030.4 0.4
22/05:30am 9.5 8.7 8.1 91 0.7 SW 2 6 1 3 1030.3 - 0.4
22/05:00am 10.3 10.0 8.7 90 0.8 CALM 0 0 0 0 1030.1 1030.1 0.4
22/04:30am 10.2 9.2 8.8 91 0.7 WSW 4 7 2 4 1030.0 - 0.4
22/04:00am 9.5 9.1 8.4 93 0.5 CALM 0 0 0 0 1029.9 1029.9 0.4
22/03:30am 10.1 8.5 8.0 87 1.0 SW 6 7 3 4 1029.9 - 0.4
22/03:00am 10.5 9.4 8.4 87 1.0 SW 4 7 2 4 1029.9 1029.9 0.4
22/02:30am 10.6 8.9 8.2 85 1.2 SW 7 11 4 6 1030.0 - 0.4
22/02:00am 11.0 9.4 8.6 85 1.2 SSW 7 9 4 5 1030.3 1030.3 0.4
22/01:30am 10.9 8.6 9.0 88 0.9 SW 11 15 6 8 1030.3 - 0.4
22/01:00am 10.9 8.7 9.3 90 0.8 SW 11 13 6 7 1030.7 1030.7 0.4
22/12:30am 10.6 10.4 8.9 89 0.8 CALM 0 0 0 0 1031.0 - 0.2
22/12:00am 10.7 9.2 8.6 87 1.0 SW 6 7 3 4 1030.8 1030.8 0.2
 
Date/Time
EST
Tmp

°C
App
Tmp
°C
Dew
Point
°C
Rel
Hum
%
Delta-T

°C
Wind Press
QNH
hPa
Press
MSL
hPa
Rain
since
9 am
mm
Dir
 
Spd
km/h
Gust
km/h
Spd
kts
Gust
kts
21/11:30pm 10.8 10.6 8.9 88 0.9 CALM 0 4 0 2 1030.8 - 0.2
21/11:00pm 11.0 9.2 9.4 90 0.8 WSW 9 11 5 6 1030.7 1030.7 0.2
21/10:30pm 11.4 9.5 9.0 85 1.2 S 9 13 5 7 1030.9 - 0.2
21/10:00pm 11.4 9.9 9.0 85 1.2 S 7 11 4 6 1030.8 1030.8 0.2
21/09:30pm 11.3 9.7 8.9 85 1.2 S 7 9 4 5 1030.8 - 0.2
21/09:00pm 11.6 10.1 9.0 84 1.3 S 7 11 4 6 1030.7 1030.7 0.2
21/08:30pm 11.9 10.0 8.9 82 1.5 SSW 9 17 5 9 1030.5 - 0.2
21/08:00pm 11.3 9.7 8.7 84 1.3 SSW 7 11 4 6 1030.3 1030.3 0.2
21/07:30pm 11.8 11.1 8.5 80 1.6 S 2 7 1 4 1030.3 - 0.2
21/07:00pm 11.3 9.5 8.0 80 1.6 S 7 9 4 5 1029.9 1029.9 0.2
21/06:30pm 11.6 9.7 7.7 77 1.9 SSW 7 11 4 6 1029.5 - 0.2
21/06:00pm 12.7 10.2 8.0 73 2.3 S 11 15 6 8 1029.0 1029.1 0.2
21/05:30pm 13.6 10.9 7.2 65 3.1 SSE 11 15 6 8 1028.7 - 0.2
21/05:00pm 14.6 11.4 6.9 60 3.7 SSE 13 19 7 10 1028.2 1028.3 0.2
21/04:30pm 15.8 12.6 7.0 56 4.4 SE 13 20 7 11 1027.8 - 0.2
21/04:00pm 16.6 13.1 7.0 53 4.7 SE 15 22 8 12 1027.4 1027.5 0.2
21/03:30pm 17.0 12.5 6.8 51 5.1 ESE 20 28 11 15 1027.3 - 0.2
21/03:00pm 15.8 11.2 6.3 53 4.6 SSE 20 35 11 19 1027.1 1027.2 0.2
21/02:30pm 17.6 13.5 7.9 53 4.9 ESE 19 26 10 14 1027.1 - 0.2
21/02:00pm 15.5 12.1 7.8 60 3.8 SSE 15 26 8 14 1027.4 1027.5 0.2
21/01:30pm 16.4 13.7 9.1 62 3.8 SSE 13 19 7 10 1027.4 - 0.2
21/01:00pm 14.7 14.7 9.9 73 2.5 CALM 0 0 0 0 1027.8 1027.9 0.2
21/12:30pm 14.8 14.1 10.0 73 2.5 N 4 9 2 5 1028.2 - 0.2
21/12:00pm 14.9 14.7 10.3 74 2.4 NNW 2 9 1 5 1028.5 1028.6 0.2
21/11:30am 13.9 12.0 9.1 73 2.4 SE 9 19 5 10 1029.1 - 0.2
21/11:00am 13.6 11.8 9.6 77 2.0 SSE 9 20 5 11 1029.2 1029.3 0.0
21/10:30am 15.6 12.8 8.6 63 3.6 S 13 20 7 11 1029.2 - 0.0
21/10:00am 14.7 12.6 8.4 66 3.2 S 9 13 5 7 1029.6 1029.6 0.0
21/09:30am 14.0 11.1 8.0 67 3.0 SSW 13 19 7 10 1029.6 - 0.0
21/09:00am 13.2 9.9 8.1 71 2.5 SSW 15 20 8 11 1029.6 1029.6 0.0
21/08:30am 12.1 9.6 8.4 78 1.8 SSW 11 17 6 9 1029.3 - 0.0
21/08:00am 9.9 9.4 7.8 87 1.0 CALM 0 0 0 0 1029.2 1029.3 0.0
21/07:30am 7.9 7.2 7.0 94 0.4 CALM 0 0 0 0 1029.0 - 0.0
21/07:00am 7.1 6.3 6.4 95 0.3 CALM 0 0 0 0 1028.7 1028.8 0.0
21/06:30am 6.5 5.5 5.6 94 0.4 CALM 0 0 0 0 1028.4 - 0.0
21/06:00am 6.8 5.9 5.9 94 0.4 CALM 0 0 0 0 1028.1 1028.2 0.0
21/05:30am 6.7 5.7 5.7 93 0.4 CALM 0 0 0 0 1027.9 - 0.0
21/05:00am 7.0 6.2 6.4 96 0.3 CALM 0 0 0 0 1027.7 1027.8 0.0
21/04:30am 6.6 5.8 6.3 98 0.1 CALM 0 0 0 0 1027.6 - 0.0
21/04:00am 6.2 5.2 5.8 97 0.2 CALM 0 0 0 0 1027.6 1027.7 0.0
21/03:30am 5.8 4.7 5.2 96 0.3 CALM 0 0 0 0 1027.5 - 0.0
21/03:00am 5.3 4.1 4.6 95 0.3 CALM 0 0 0 0 1027.2 1027.3 0.0
21/02:30am 4.9 3.5 3.7 92 0.5 CALM 0 0 0 0 1027.2 - 0.0
21/02:00am 6.0 4.8 4.8 92 0.5 CALM 0 0 0 0 1027.3 1027.4 0.0
21/01:30am 7.0 5.9 5.3 89 0.8 CALM 0 0 0 0 1027.3 - 0.0
21/01:00am 6.3 5.1 4.8 90 0.6 CALM 0 0 0 0 1027.3 1027.4 0.0
21/12:30am 6.9 5.8 5.2 89 0.8 CALM 0 6 0 3 1027.3 - 0.0
21/12:00am 6.9 5.8 5.2 89 0.7 CALM 0 0 0 0 1027.4 1027.5 0.0
 
Date/Time
EST
Tmp

°C
App
Tmp
°C
Dew
Point
°C
Rel
Hum
%
Delta-T

°C
Wind Press
QNH
hPa
Press
MSL
hPa
Rain
since
9 am
mm
Dir
 
Spd
km/h
Gust
km/h
Spd
kts
Gust
kts
20/11:30pm 7.1 4.8 4.9 86 1.0 SW 6 9 3 5 1027.5 - 0.0
20/11:00pm 7.3 6.3 5.6 89 0.8 CALM 0 0 0 0 1027.5 1027.6 0.0
20/10:30pm 7.5 5.2 4.8 83 1.2 WSW 6 9 3 5 1027.5 - 0.0
20/10:00pm 7.7 6.7 5.7 87 0.9 CALM 0 0 0 0 1027.5 1027.6 0.0
20/09:30pm 7.9 6.9 5.5 85 1.1 CALM 0 0 0 0 1027.5 - 0.0
20/09:00pm 8.8 6.5 5.0 77 1.7 SW 6 7 3 4 1027.4 1027.5 0.0
20/08:30pm 9.1 7.0 5.7 79 1.6 SW 6 9 3 5 1027.2 - 0.0
20/08:00pm 9.3 8.4 6.0 80 1.5 CALM 0 0 0 0 1027.0 1027.1 0.0
20/07:30pm 9.7 7.9 5.3 74 2.0 W 4 7 2 4 1026.8 - 0.0
20/07:00pm 10.8 8.4 5.1 68 2.6 SW 7 9 4 5 1026.4 1026.5 0.0
20/06:30pm 12.3 9.6 5.7 64 3.1 S 9 13 5 7 1026.1 - 0.0
20/06:00pm 12.5 9.8 5.7 63 3.2 SSE 9 13 5 7 1025.9 1026.0 0.0
20/05:30pm 13.2 10.5 5.4 59 3.7 ESE 9 11 5 6 1025.5 - 0.0
20/05:00pm 13.8 11.0 5.2 56 4.0 ESE 9 13 5 7 1025.0 1025.1 0.0
20/04:30pm 14.6 11.4 5.1 53 4.5 SE 11 17 6 9 1024.6 - 0.0
20/04:00pm 16.8 13.4 5.7 48 5.4 ESE 13 19 7 10 1024.4 1024.5 0.0
20/03:30pm 15.6 12.0 4.9 49 5.1 SE 13 17 7 9 1024.2 - 0.0
20/03:00pm 17.0 13.8 5.0 45 5.7 ESE 11 17 6 9 1024.0 1024.1 0.0
20/02:30pm 17.0 13.8 5.0 45 5.7 ESE 11 17 6 9 1023.9 - 0.0
20/02:00pm 16.8 13.8 4.2 43 5.9 SSE 9 15 5 8 1023.8 1023.9 0.0
20/01:30pm 16.4 12.6 4.1 44 5.8 S 13 19 7 10 1023.9 - 0.0
20/01:00pm 16.5 13.1 4.2 44 5.7 S 11 17 6 9 1024.1 1024.2 0.0
20/12:30pm 16.2 12.4 3.9 44 5.7 SW 13 20 7 11 1024.4 - 0.0
20/12:00pm 16.4 13.8 4.1 44 5.7 SW 7 15 4 8 1024.7 1024.8 0.0
20/11:30am 16.1 12.0 4.2 45 5.6 S 15 22 8 12 1025.1 - 0.0
20/11:00am 15.1 11.4 4.5 49 4.9 S 13 20 7 11 1025.4 1025.5 0.0
20/10:30am 15.0 10.5 4.4 49 4.9 S 17 22 9 12 1025.5 - 0.0
20/10:00am 14.6 10.1 4.3 50 4.7 SSW 17 22 9 12 1025.5 1025.6 0.0
20/09:30am 13.9 9.1 4.5 53 4.3 SSW 19 30 10 16 1025.5 - 0.0
20/09:00am 12.6 8.9 4.6 58 3.6 S 13 19 7 10 1025.6 1025.7 0.2
20/08:30am 12.4 8.0 4.6 59 3.6 SSW 17 30 9 16 1025.4 - 0.2
20/08:00am 11.7 7.9 4.0 59 3.4 WSW 13 19 7 10 1025.1 1025.2 0.2
20/07:30am 11.5 7.1 4.7 63 3.1 SW 17 26 9 14 1024.8 - 0.2
20/07:00am 11.3 6.8 4.1 61 3.2 SW 17 24 9 13 1024.5 1024.6 0.2
20/06:30am 10.6 8.2 4.3 65 2.8 SW 6 9 3 5 1024.1 - 0.2
20/06:00am 10.5 7.9 4.2 65 2.8 SW 7 11 4 6 1023.7 1023.8 0.2
20/05:30am 10.4 6.6 3.9 64 2.9 WSW 13 17 7 9 1023.2 - 0.2

Latest Capital City Observations: Canberra | Sydney | Melbourne | Brisbane | Adelaide | Perth | Hobart | Darwin

Other Formats:

Comma delimited format used in spreadsheet applications
http://www.bom.gov.au/fwo/IDN60901/IDN60901.94755.axf

JavaScript Object Notation format (JSON) in row-major order
http://www.bom.gov.au/fwo/IDN60901/IDN60901.94755.json